Time;durP1;ratioP1;P1;durP2;ratioP2;P2;SDS_P1;SDS_P2;PMS_P1;PMS_P2;Temp;Humidity;BMP_temperature;BMP_pressure;BME280_temperature;BME280_humidity;BME280_pressure;Samples;Min_cycle;Max_cycle;Signal;HPM_P1;HPM_P2
2022/01/14 00:02:01;;;;;;;12.88;4.45;;;;;;;;;;2326956;57;21133;-76
2022/01/14 00:04:29;;;;;;;23.10;6.28;;;;;;;;;;2570228;54;21294;-77
2022/01/14 00:06:56;;;;;;;24.63;5.87;;;;;;;;;;2327100;57;21338;-77
2022/01/14 00:09:23;;;;;;;17.98;7.05;;;;;;;;;;2326822;57;21047;-77
2022/01/14 00:11:54;;;;;;;21.55;5.28;;;;;;;;;;2327183;57;21126;-77
2022/01/14 00:14:25;;;;;;;21.65;7.12;;;;;;;;;;2327073;57;21071;-77
2022/01/14 00:16:53;;;;;;;17.87;6.40;;;;;;;;;;2326869;57;21139;-77
2022/01/14 00:19:20;;;;;;;23.60;6.65;;;;;;;;;;2326210;57;21891;-77
2022/01/14 00:21:47;;;;;;;30.83;6.65;;;;;;;;;;2327244;57;21063;-77
2022/01/14 00:24:25;;;;;;;19.35;5.80;;;;;;;;;;2570117;54;21044;-77
2022/01/14 00:32:32;;;;;;;15.55;4.80;;;;;;;;;;2327126;57;21023;-77
2022/01/14 00:34:59;;;;;;;19.85;5.75;;;;;;;;;;2327013;57;21119;-76
2022/01/14 00:37:26;;;;;;;24.63;7.22;;;;;;;;;;2570411;54;21134;-77
2022/01/14 00:39:53;;;;;;;17.98;6.95;;;;;;;;;;2569954;53;21063;-77
2022/01/14 00:42:21;;;;;;;23.65;6.12;;;;;;;;;;2327103;57;21064;-77
2022/01/14 00:44:49;;;;;;;24.75;5.45;;;;;;;;;;2327111;57;21051;-77
2022/01/14 00:47:16;;;;;;;21.42;4.97;;;;;;;;;;2327195;57;21143;-77
2022/01/14 00:49:43;;;;;;;29.23;6.43;;;;;;;;;;2326717;57;21110;-78
2022/01/14 00:52:10;;;;;;;14.60;5.65;;;;;;;;;;2327133;57;21139;-77
2022/01/14 00:54:38;;;;;;;15.75;4.97;;;;;;;;;;2327168;57;21051;-77
2022/01/14 00:57:27;;;;;;;16.80;5.55;;;;;;;;;;2327104;57;21047;-77
2022/01/14 00:59:54;;;;;;;10.00;4.60;;;;;;;;;;2570004;53;21104;-78
2022/01/14 01:02:21;;;;;;;14.10;5.12;;;;;;;;;;2327281;57;21126;-78
2022/01/14 01:04:49;;;;;;;25.73;6.12;;;;;;;;;;2326858;57;21123;-77
2022/01/14 01:07:18;;;;;;;19.60;5.70;;;;;;;;;;2327076;57;21068;-78
2022/01/14 01:09:48;;;;;;;20.50;5.55;;;;;;;;;;2326752;57;21090;-78
2022/01/14 01:12:28;;;;;;;17.40;4.90;;;;;;;;;;2327097;57;21076;-77
2022/01/14 01:15:05;;;;;;;15.55;5.47;;;;;;;;;;2327639;57;21295;-78
2022/01/14 01:17:32;;;;;;;24.45;6.75;;;;;;;;;;2570657;54;21059;-79
2022/01/14 01:20:00;;;;;;;13.90;5.32;;;;;;;;;;2327116;57;21079;-79
2022/01/14 01:22:27;;;;;;;13.30;5.37;;;;;;;;;;2328484;57;21122;-78
2022/01/14 01:24:55;;;;;;;14.32;5.18;;;;;;;;;;2328262;57;21384;-78
2022/01/14 01:27:22;;;;;;;18.67;5.93;;;;;;;;;;2327380;57;21146;-77
2022/01/14 01:29:54;;;;;;;19.23;5.50;;;;;;;;;;2570347;53;21134;-77
2022/01/14 01:32:21;;;;;;;14.57;5.13;;;;;;;;;;2327556;57;21079;-77
2022/01/14 01:34:49;;;;;;;19.60;5.55;;;;;;;;;;2327298;57;21373;-77
2022/01/14 01:37:16;;;;;;;20.80;5.53;;;;;;;;;;2327427;57;21730;-77
2022/01/14 01:39:43;;;;;;;18.20;5.22;;;;;;;;;;2570367;53;21131;-77
2022/01/14 01:42:11;;;;;;;13.85;5.40;;;;;;;;;;2570653;54;21059;-77
2022/01/14 01:44:39;;;;;;;26.30;5.78;;;;;;;;;;2327418;57;21955;-78
2022/01/14 01:47:07;;;;;;;18.10;5.53;;;;;;;;;;2327503;57;21079;-77
2022/01/14 01:49:35;;;;;;;19.37;5.40;;;;;;;;;;2570197;53;21147;-77
2022/01/14 01:52:03;;;;;;;15.85;5.60;;;;;;;;;;2327484;57;21075;-77
2022/01/14 01:54:30;;;;;;;17.33;5.68;;;;;;;;;;2327484;57;21082;-78
2022/01/14 01:56:57;;;;;;;18.52;5.87;;;;;;;;;;2327384;57;21361;-78
2022/01/14 01:59:25;;;;;;;9.18;4.28;;;;;;;;;;2327055;57;21329;-78
2022/01/14 02:01:52;;;;;;;20.23;5.50;;;;;;;;;;2570414;54;21138;-78
2022/01/14 02:04:19;;;;;;;20.62;5.20;;;;;;;;;;2570648;54;21560;-78
2022/01/14 02:06:47;;;;;;;20.73;5.57;;;;;;;;;;2327333;57;21580;-77
2022/01/14 02:09:14;;;;;;;16.45;4.85;;;;;;;;;;2326939;57;21802;-77
2022/01/14 02:11:41;;;;;;;16.98;5.53;;;;;;;;;;2327555;57;21079;-78
2022/01/14 02:14:25;;;;;;;16.02;4.80;;;;;;;;;;2327340;57;21745;-78
2022/01/14 02:17:17;;;;;;;10.57;5.53;;;;;;;;;;2327400;57;21153;-77
2022/01/14 02:22:09;;;;;;;15.40;5.35;;;;;;;;;;2327024;57;21059;-77
2022/01/14 02:24:59;;;;;;;18.33;5.65;;;;;;;;;;2327405;57;21082;-77
2022/01/14 02:27:26;;;;;;;14.20;4.20;;;;;;;;;;2570454;54;21055;-77
2022/01/14 02:29:53;;;;;;;18.08;5.25;;;;;;;;;;2327175;57;21305;-78
2022/01/14 02:32:20;;;;;;;18.12;4.70;;;;;;;;;;2327201;57;21778;-78
2022/01/14 02:34:47;;;;;;;19.45;5.00;;;;;;;;;;2327347;57;21959;-78
2022/01/14 02:37:19;;;;;;;14.15;4.53;;;;;;;;;;2327453;57;21078;-77
2022/01/14 02:39:47;;;;;;;13.70;4.35;;;;;;;;;;2327281;57;21055;-78
2022/01/14 02:42:14;;;;;;;13.25;3.65;;;;;;;;;;2570926;54;21074;-77
2022/01/14 02:44:41;;;;;;;14.63;4.40;;;;;;;;;;2327657;57;21850;-78
2022/01/14 02:47:08;;;;;;;13.15;3.72;;;;;;;;;;2327453;57;21088;-78
2022/01/14 02:49:37;;;;;;;19.60;4.40;;;;;;;;;;2570898;53;21124;-78
2022/01/14 02:52:07;;;;;;;11.68;3.08;;;;;;;;;;2571114;54;21781;-78
2022/01/14 02:54:41;;;;;;;18.80;4.53;;;;;;;;;;2570941;54;21128;-78
2022/01/14 02:57:09;;;;;;;9.40;3.60;;;;;;;;;;2327634;57;21079;-78
2022/01/14 02:59:38;;;;;;;11.60;4.10;;;;;;;;;;2327149;57;21294;-77
2022/01/14 03:02:07;;;;;;;9.15;3.40;;;;;;;;;;2327209;57;21047;-78
2022/01/14 03:04:39;;;;;;;18.50;5.72;;;;;;;;;;2327272;57;21229;-78
2022/01/14 03:07:06;;;;;;;14.50;4.25;;;;;;;;;;2570591;54;21119;-78
2022/01/14 03:09:33;;;;;;;15.32;3.80;;;;;;;;;;2326866;57;21082;-78
2022/01/14 03:12:02;;;;;;;19.35;4.40;;;;;;;;;;2570338;54;21877;-78
2022/01/14 03:14:29;;;;;;;20.62;4.82;;;;;;;;;;2327376;57;21787;-78
2022/01/14 03:16:59;;;;;;;13.62;4.40;;;;;;;;;;2570336;54;21068;-78
2022/01/14 03:19:27;;;;;;;14.27;4.15;;;;;;;;;;2326944;57;21899;-78
2022/01/14 03:22:05;;;;;;;14.15;4.55;;;;;;;;;;2570293;54;21119;-76
2022/01/14 03:27:18;;;;;;;18.67;4.07;;;;;;;;;;2327348;57;20996;-78
2022/01/14 03:29:45;;;;;;;20.33;4.57;;;;;;;;;;2326964;57;21786;-79
2022/01/14 03:32:12;;;;;;;14.57;4.60;;;;;;;;;;2327387;57;21066;-78
2022/01/14 03:34:39;;;;;;;15.63;3.83;;;;;;;;;;2327571;57;21068;-78
2022/01/14 03:37:07;;;;;;;14.27;4.28;;;;;;;;;;2328912;57;21390;-77
2022/01/14 03:39:34;;;;;;;16.87;4.18;;;;;;;;;;2327104;57;21147;-79
2022/01/14 03:42:01;;;;;;;16.62;4.53;;;;;;;;;;2327142;57;21127;-78
2022/01/14 03:44:28;;;;;;;21.00;4.70;;;;;;;;;;2328081;57;21075;-78
2022/01/14 03:46:55;;;;;;;13.95;4.28;;;;;;;;;;2327949;57;21142;-77
2022/01/14 03:49:22;;;;;;;17.50;4.40;;;;;;;;;;2327255;57;21287;-78
2022/01/14 03:51:50;;;;;;;15.45;3.72;;;;;;;;;;2570623;54;21134;-77
2022/01/14 03:54:17;;;;;;;14.60;3.87;;;;;;;;;;2327572;57;21173;-78
2022/01/14 03:56:44;;;;;;;19.95;4.60;;;;;;;;;;2570766;54;21202;-76
2022/01/14 03:59:11;;;;;;;12.98;3.12;;;;;;;;;;2327067;57;21059;-77
2022/01/14 04:01:38;;;;;;;14.82;4.05;;;;;;;;;;2327308;57;21861;-78
2022/01/14 04:04:05;;;;;;;16.20;3.87;;;;;;;;;;2570361;54;21138;-78
2022/01/14 04:06:33;;;;;;;10.63;3.75;;;;;;;;;;2327474;57;21151;-77
2022/01/14 04:09:00;;;;;;;11.82;3.95;;;;;;;;;;2326991;57;21142;-77
2022/01/14 04:11:29;;;;;;;13.30;3.83;;;;;;;;;;2570498;54;21082;-77
2022/01/14 04:14:06;;;;;;;15.75;4.25;;;;;;;;;;2327249;57;21071;-76
2022/01/14 04:16:34;;;;;;;14.63;4.18;;;;;;;;;;2570027;54;21130;-77
2022/01/14 04:19:01;;;;;;;18.33;4.87;;;;;;;;;;2326639;57;21095;-77
2022/01/14 04:21:29;;;;;;;18.20;4.05;;;;;;;;;;2327221;57;21854;-78
2022/01/14 04:23:56;;;;;;;12.35;4.47;;;;;;;;;;2327433;57;21138;-78
2022/01/14 04:26:23;;;;;;;15.88;4.80;;;;;;;;;;2327750;57;21611;-77
2022/01/14 04:28:50;;;;;;;18.83;4.62;;;;;;;;;;2327159;57;21623;-78
2022/01/14 04:31:18;;;;;;;16.67;4.90;;;;;;;;;;2329226;53;21067;-79
2022/01/14 04:33:45;;;;;;;16.70;4.75;;;;;;;;;;2305871;58;21043;-79
2022/01/14 04:36:12;;;;;;;20.12;4.37;;;;;;;;;;2309042;54;21079;-79
2022/01/14 04:38:40;;;;;;;16.15;4.53;;;;;;;;;;2306808;54;21143;-79
2022/01/14 04:41:08;;;;;;;16.50;4.32;;;;;;;;;;2329279;53;21074;-79
2022/01/14 04:43:36;;;;;;;23.12;5.87;;;;;;;;;;2335878;57;21593;-80
2022/01/14 04:46:34;;;;;;;18.67;4.47;;;;;;;;;;2341658;53;21326;-81
2022/01/14 04:49:02;;;;;;;20.10;5.25;;;;;;;;;;2337696;57;21190;-78
2022/01/14 04:51:29;;;;;;;25.27;5.45;;;;;;;;;;2341908;53;21418;-80
2022/01/14 04:53:56;;;;;;;10.93;3.95;;;;;;;;;;2339811;53;21131;-79
2022/01/14 04:56:23;;;;;;;14.30;4.82;;;;;;;;;;2342727;53;21095;-80
2022/01/14 04:58:50;;;;;;;15.32;4.50;;;;;;;;;;2341761;53;21631;-79
2022/01/14 05:01:17;;;;;;;21.70;5.22;;;;;;;;;;2337185;57;21548;-79
2022/01/14 05:03:44;;;;;;;21.73;5.85;;;;;;;;;;2336996;57;21067;-79
2022/01/14 05:06:12;;;;;;;26.00;4.90;;;;;;;;;;2340198;53;21650;-80
2022/01/14 05:08:40;;;;;;;16.92;5.18;;;;;;;;;;2337568;57;21122;-80
2022/01/14 05:11:23;;;;;;;13.98;4.80;;;;;;;;;;2340246;56;21078;-80
2022/01/14 05:13:50;;;;;;;12.57;4.35;;;;;;;;;;2383435;53;21110;-81
2022/01/14 05:16:17;;;;;;;19.27;4.50;;;;;;;;;;2359071;53;21094;-81
2022/01/14 05:18:44;;;;;;;21.50;4.32;;;;;;;;;;2339569;57;21079;-78
2022/01/14 05:23:47;;;;;;;20.02;5.57;;;;;;;;;;2308830;57;28303;-76
2022/01/14 05:26:14;;;;;;;14.32;3.95;;;;;;;;;;2347748;57;21046;-76
2022/01/14 05:28:41;;;;;;;17.87;5.03;;;;;;;;;;2347266;57;21038;-76
2022/01/14 05:31:08;;;;;;;17.00;4.43;;;;;;;;;;2332847;54;21195;-75
2022/01/14 05:33:35;;;;;;;22.33;5.12;;;;;;;;;;2317817;58;21060;-74
2022/01/14 05:36:02;;;;;;;14.95;5.12;;;;;;;;;;2317626;58;22109;-74
2022/01/14 05:38:30;;;;;;;24.70;4.60;;;;;;;;;;2319084;58;21034;-75
2022/01/14 05:40:57;;;;;;;16.75;4.70;;;;;;;;;;2329681;54;21526;-76
2022/01/14 05:43:24;;;;;;;14.87;3.72;;;;;;;;;;2319443;58;21037;-75
2022/01/14 05:45:51;;;;;;;13.50;4.10;;;;;;;;;;2319362;58;21123;-76
2022/01/14 05:48:18;;;;;;;15.52;4.03;;;;;;;;;;2319011;58;21096;-76
2022/01/14 05:50:45;;;;;;;21.60;4.05;;;;;;;;;;2318720;58;21112;-76
2022/01/14 05:53:13;;;;;;;20.48;3.75;;;;;;;;;;2319229;58;21115;-76
2022/01/14 05:55:40;;;;;;;12.65;4.05;;;;;;;;;;2348623;54;21048;-75
2022/01/14 05:58:07;;;;;;;15.10;3.55;;;;;;;;;;2319036;58;21599;-76
2022/01/14 06:00:34;;;;;;;12.32;3.62;;;;;;;;;;2338824;54;21566;-76
2022/01/14 06:03:02;;;;;;;16.08;4.40;;;;;;;;;;2319154;58;21142;-75
2022/01/14 06:05:29;;;;;;;15.48;3.83;;;;;;;;;;2317464;58;21543;-75
2022/01/14 06:07:56;;;;;;;29.00;4.85;;;;;;;;;;2318862;58;21207;-76
2022/01/14 06:10:23;;;;;;;15.68;4.37;;;;;;;;;;2318363;58;21108;-76
2022/01/14 06:12:50;;;;;;;15.80;4.35;;;;;;;;;;2318975;58;21119;-76
2022/01/14 06:15:18;;;;;;;16.05;3.33;;;;;;;;;;2318806;58;21175;-76
2022/01/14 06:17:45;;;;;;;14.13;3.83;;;;;;;;;;2318859;58;21044;-76
2022/01/14 06:20:13;;;;;;;13.80;3.75;;;;;;;;;;2318725;58;21583;-76
2022/01/14 06:22:40;;;;;;;15.02;3.95;;;;;;;;;;2318774;58;21041;-75
2022/01/14 06:25:11;;;;;;;12.13;3.35;;;;;;;;;;2318447;58;21049;-76
2022/01/14 06:27:40;;;;;;;19.02;4.45;;;;;;;;;;2319386;58;21112;-75
2022/01/14 06:30:09;;;;;;;18.20;4.22;;;;;;;;;;2318362;58;21073;-76
2022/01/14 06:32:41;;;;;;;19.40;4.60;;;;;;;;;;2331934;54;21057;-76
2022/01/14 06:35:09;;;;;;;22.48;5.20;;;;;;;;;;2349604;54;21049;-76
2022/01/14 06:37:36;;;;;;;11.77;3.95;;;;;;;;;;2559190;54;21052;-76
2022/01/14 06:40:04;;;;;;;18.65;4.22;;;;;;;;;;2317402;58;21028;-75
2022/01/14 06:42:31;;;;;;;12.82;4.03;;;;;;;;;;2480349;54;21049;-76
2022/01/14 06:44:58;;;;;;;12.85;4.10;;;;;;;;;;2318160;58;21551;-76
2022/01/14 06:47:26;;;;;;;13.90;3.67;;;;;;;;;;2318527;58;21119;-76
2022/01/14 06:49:53;;;;;;;20.25;4.40;;;;;;;;;;2332270;54;21057;-76
2022/01/14 06:52:21;;;;;;;15.40;4.15;;;;;;;;;;2317908;58;21052;-76
2022/01/14 06:54:48;;;;;;;11.38;3.60;;;;;;;;;;2317268;58;21131;-76
2022/01/14 06:57:15;;;;;;;10.50;3.80;;;;;;;;;;2322931;54;21089;-76
2022/01/14 06:59:43;;;;;;;12.27;3.47;;;;;;;;;;2317848;58;21567;-76
2022/01/14 07:02:10;;;;;;;13.07;4.68;;;;;;;;;;2318286;58;21128;-76
2022/01/14 07:04:38;;;;;;;16.25;4.07;;;;;;;;;;2317573;58;21037;-76
2022/01/14 07:07:05;;;;;;;11.00;3.75;;;;;;;;;;2317751;58;21060;-76
2022/01/14 07:09:55;;;;;;;14.43;4.15;;;;;;;;;;2316498;58;21044;-74
2022/01/14 07:12:23;;;;;;;25.35;5.18;;;;;;;;;;2317312;58;21060;-74
2022/01/14 07:14:50;;;;;;;17.83;4.35;;;;;;;;;;2317486;58;21527;-76
2022/01/14 07:17:18;;;;;;;10.63;3.30;;;;;;;;;;2318556;58;21044;-76
2022/01/14 07:19:48;;;;;;;15.55;4.43;;;;;;;;;;2318044;58;21526;-76
2022/01/14 07:22:16;;;;;;;14.38;4.22;;;;;;;;;;2318360;58;21056;-76
2022/01/14 07:24:43;;;;;;;16.00;4.50;;;;;;;;;;2318059;58;21571;-76
2022/01/14 07:27:10;;;;;;;17.83;4.12;;;;;;;;;;2541207;54;21025;-76
2022/01/14 07:29:38;;;;;;;9.20;3.85;;;;;;;;;;2318084;58;21036;-75
2022/01/14 07:32:06;;;;;;;15.07;4.45;;;;;;;;;;2318219;58;21052;-77
2022/01/14 07:34:33;;;;;;;17.15;4.72;;;;;;;;;;2318397;58;21104;-74
2022/01/14 07:37:00;;;;;;;15.98;4.07;;;;;;;;;;2318290;58;21139;-76
2022/01/14 07:39:28;;;;;;;11.80;3.58;;;;;;;;;;2318196;58;21634;-76
2022/01/14 07:41:55;;;;;;;16.80;4.32;;;;;;;;;;2318158;58;21112;-76
2022/01/14 07:44:22;;;;;;;27.13;4.60;;;;;;;;;;2318404;58;21050;-76
2022/01/14 07:46:49;;;;;;;15.85;4.90;;;;;;;;;;2318396;58;21091;-76
2022/01/14 07:49:17;;;;;;;18.40;4.68;;;;;;;;;;2318123;58;21055;-76
2022/01/14 07:51:44;;;;;;;14.13;4.40;;;;;;;;;;2318703;58;21531;-76
2022/01/14 07:54:11;;;;;;;14.98;4.18;;;;;;;;;;2318255;58;21060;-76
2022/01/14 07:56:39;;;;;;;18.70;4.87;;;;;;;;;;2318217;58;21457;-76
2022/01/14 07:59:07;;;;;;;20.48;4.93;;;;;;;;;;2317790;58;21072;-76
2022/01/14 08:01:37;;;;;;;12.60;4.03;;;;;;;;;;2318338;58;21068;-76
2022/01/14 08:04:05;;;;;;;17.98;4.95;;;;;;;;;;2318033;58;21168;-75
2022/01/14 08:06:33;;;;;;;18.33;5.15;;;;;;;;;;2317820;58;21104;-76
2022/01/14 08:09:01;;;;;;;22.05;5.10;;;;;;;;;;2318083;57;21032;-76
2022/01/14 08:11:28;;;;;;;24.58;5.62;;;;;;;;;;2318244;58;21088;-76
2022/01/14 08:13:55;;;;;;;20.67;5.47;;;;;;;;;;2318328;58;21618;-74
2022/01/14 08:16:22;;;;;;;14.13;5.10;;;;;;;;;;2318198;58;21296;-76
2022/01/14 08:18:50;;;;;;;19.37;5.37;;;;;;;;;;2317941;58;21040;-75
2022/01/14 08:21:17;;;;;;;18.95;4.90;;;;;;;;;;2318118;58;21116;-76
2022/01/14 08:23:44;;;;;;;15.18;5.15;;;;;;;;;;2319742;54;21586;-74
2022/01/14 08:26:11;;;;;;;18.45;4.15;;;;;;;;;;2318052;58;21124;-75
2022/01/14 08:28:39;;;;;;;28.73;5.97;;;;;;;;;;2318287;58;21033;-75
2022/01/14 08:31:06;;;;;;;17.58;4.70;;;;;;;;;;2318127;58;21060;-75
2022/01/14 08:33:33;;;;;;;21.48;5.43;;;;;;;;;;2344244;54;21340;-76
2022/01/14 08:36:01;;;;;;;18.83;5.57;;;;;;;;;;2318418;58;21506;-74
2022/01/14 08:38:28;;;;;;;20.25;4.97;;;;;;;;;;2317847;58;21073;-75
2022/01/14 08:40:55;;;;;;;20.98;4.72;;;;;;;;;;2318131;58;21065;-76
2022/01/14 08:43:22;;;;;;;36.40;5.85;;;;;;;;;;2318286;58;21108;-76
2022/01/14 08:45:50;;;;;;;27.48;5.47;;;;;;;;;;2318408;58;21113;-76
2022/01/14 08:48:17;;;;;;;22.33;5.00;;;;;;;;;;2316811;58;21551;-76
2022/01/14 08:50:45;;;;;;;27.13;4.93;;;;;;;;;;2317856;58;21093;-76
2022/01/14 08:53:14;;;;;;;19.08;4.12;;;;;;;;;;2318289;58;21116;-76
2022/01/14 08:55:41;;;;;;;25.05;5.10;;;;;;;;;;2317164;58;21127;-76
2022/01/14 08:58:09;;;;;;;17.92;5.70;;;;;;;;;;2318308;58;21383;-76
2022/01/14 09:00:37;;;;;;;34.35;6.47;;;;;;;;;;2317951;58;21100;-76
2022/01/14 09:03:04;;;;;;;24.15;4.65;;;;;;;;;;2322502;54;21036;-76
2022/01/14 09:05:32;;;;;;;20.58;4.75;;;;;;;;;;2317880;58;21721;-76
2022/01/14 09:07:59;;;;;;;21.37;4.72;;;;;;;;;;2318310;58;21116;-76
2022/01/14 09:10:26;;;;;;;23.73;5.47;;;;;;;;;;2318150;58;21112;-76
2022/01/14 09:12:54;;;;;;;17.40;4.50;;;;;;;;;;2317739;58;21104;-76
2022/01/14 09:15:21;;;;;;;16.58;4.68;;;;;;;;;;2318072;58;21547;-76
2022/01/14 09:17:48;;;;;;;19.75;4.30;;;;;;;;;;2318389;58;21097;-76
2022/01/14 09:20:16;;;;;;;24.17;4.25;;;;;;;;;;2317871;58;21020;-76
2022/01/14 09:22:48;;;;;;;17.33;4.32;;;;;;;;;;2357739;54;21111;-76
2022/01/14 09:25:15;;;;;;;14.40;4.18;;;;;;;;;;2320290;54;21049;-76
2022/01/14 09:27:43;;;;;;;15.57;4.03;;;;;;;;;;2317496;58;21057;-76
2022/01/14 09:30:12;;;;;;;17.35;3.97;;;;;;;;;;2317984;58;21044;-76
2022/01/14 09:32:39;;;;;;;16.15;4.05;;;;;;;;;;2317409;58;21132;-76
2022/01/14 09:35:07;;;;;;;16.58;5.28;;;;;;;;;;2317313;58;21204;-76
2022/01/14 09:37:35;;;;;;;17.80;4.65;;;;;;;;;;2318039;58;21093;-76
2022/01/14 09:40:03;;;;;;;16.77;4.05;;;;;;;;;;2317153;58;21033;-76
2022/01/14 09:42:30;;;;;;;15.50;3.75;;;;;;;;;;2317379;58;21103;-76
2022/01/14 09:44:58;;;;;;;17.90;4.75;;;;;;;;;;2327283;54;21128;-76
2022/01/14 09:47:26;;;;;;;13.77;3.83;;;;;;;;;;2318187;58;21044;-76
2022/01/14 09:49:53;;;;;;;17.83;4.30;;;;;;;;;;2405080;54;21044;-76
2022/01/14 09:52:21;;;;;;;14.13;5.05;;;;;;;;;;2317716;58;21575;-76
2022/01/14 09:54:50;;;;;;;12.82;3.70;;;;;;;;;;2318343;58;21100;-76
2022/01/14 09:57:18;;;;;;;11.70;3.75;;;;;;;;;;2318359;58;21048;-76
2022/01/14 09:59:45;;;;;;;21.05;5.20;;;;;;;;;;2377792;54;21040;-76
2022/01/14 10:02:29;;;;;;;17.17;5.30;;;;;;;;;;2317499;58;21436;-76
2022/01/14 10:04:55;;;;;;;;;;;;;;;;;;2562494;54;21033;-76
2022/01/14 10:07:22;;;;;;;11.35;4.35;;;;;;;;;;2559361;54;20051;-76
2022/01/14 10:09:56;;;;;;;12.13;4.12;;;;;;;;;;2384813;54;21118;-76
2022/01/14 10:12:23;;;;;;;14.73;4.15;;;;;;;;;;2316817;58;21044;-75
2022/01/14 10:14:54;;;;;;;11.65;3.83;;;;;;;;;;2318516;58;21036;-76
2022/01/14 10:17:22;;;;;;;16.80;4.35;;;;;;;;;;2357370;54;21084;-76
2022/01/14 10:19:49;;;;;;;15.50;3.83;;;;;;;;;;2333444;54;21108;-76
2022/01/14 10:22:21;;;;;;;17.95;3.72;;;;;;;;;;2392258;53;21041;-76
2022/01/14 10:24:56;;;;;;;11.00;3.95;;;;;;;;;;2318216;58;21048;-76
2022/01/14 10:27:33;;;;;;;15.63;4.60;;;;;;;;;;2318395;58;21187;-76
2022/01/14 10:30:19;;;;;;;20.15;5.70;;;;;;;;;;2318070;58;21052;-76
2022/01/14 10:32:53;;;;;;;9.00;3.47;;;;;;;;;;2219410;61;21143;-84
2022/01/14 10:35:21;;;;;;;12.00;3.70;;;;;;;;;;2219402;61;21171;-84
2022/01/14 10:37:49;;;;;;;10.50;4.47;;;;;;;;;;2438057;57;21080;-84
2022/01/14 10:40:17;;;;;;;14.90;3.78;;;;;;;;;;2441387;56;21165;-84
2022/01/14 10:42:45;;;;;;;14.80;5.43;;;;;;;;;;2242771;60;21093;-82
2022/01/14 10:45:19;;;;;;;13.57;4.53;;;;;;;;;;2467567;56;21164;-84
2022/01/14 10:48:05;;;;;;;13.52;4.68;;;;;;;;;;2243281;60;21073;-84
2022/01/14 10:50:35;;;;;;;10.80;3.40;;;;;;;;;;2467379;55;21593;-84
2022/01/14 10:53:03;;;;;;;17.10;5.12;;;;;;;;;;2467675;56;21161;-84
2022/01/14 10:55:31;;;;;;;10.55;3.60;;;;;;;;;;2468135;56;21077;-84
2022/01/14 10:58:00;;;;;;;7.90;3.40;;;;;;;;;;2243462;60;21102;-81
2022/01/14 11:00:27;;;;;;;13.38;4.10;;;;;;;;;;2467078;55;21208;-82
2022/01/14 11:02:56;;;;;;;8.82;3.58;;;;;;;;;;2242549;60;21109;-83
2022/01/14 11:05:24;;;;;;;16.45;4.05;;;;;;;;;;2467382;56;21106;-83
2022/01/14 11:07:53;;;;;;;15.30;4.28;;;;;;;;;;2243434;60;21122;-82
2022/01/14 11:10:25;;;;;;;7.22;3.40;;;;;;;;;;2243388;60;21771;-81
2022/01/14 11:12:53;;;;;;;10.82;4.35;;;;;;;;;;2243119;60;21093;-82
2022/01/14 11:15:21;;;;;;;12.70;3.30;;;;;;;;;;2466915;56;21573;-82
2022/01/14 11:17:51;;;;;;;9.02;3.45;;;;;;;;;;2243179;60;21084;-81
2022/01/14 11:20:25;;;;;;;8.82;3.25;;;;;;;;;;2243202;60;21982;-81
2022/01/14 11:25:40;;;;;;;6.78;2.78;;;;;;;;;;2243051;60;21048;-81
2022/01/14 11:28:08;;;;;;;5.68;2.75;;;;;;;;;;2243262;60;21074;-82
2022/01/14 11:30:38;;;;;;;6.10;2.87;;;;;;;;;;2242865;60;21581;-82
2022/01/14 11:33:06;;;;;;;7.22;2.80;;;;;;;;;;2467874;56;21148;-82
2022/01/14 11:35:34;;;;;;;6.62;2.37;;;;;;;;;;2242860;60;21577;-79
2022/01/14 11:38:02;;;;;;;6.70;2.92;;;;;;;;;;2467580;56;21085;-81
2022/01/14 11:40:47;;;;;;;6.07;2.67;;;;;;;;;;2467586;55;21089;-82
2022/01/14 11:43:38;;;;;;;3.55;2.17;;;;;;;;;;2243104;60;21649;-82
2022/01/14 11:46:05;;;;;;;5.05;2.37;;;;;;;;;;2243726;60;21069;-82
2022/01/14 11:48:35;;;;;;;6.03;2.75;;;;;;;;;;2243298;60;21117;-82
2022/01/14 11:51:03;;;;;;;7.65;2.45;;;;;;;;;;2465850;55;21089;-85
2022/01/14 11:53:32;;;;;;;5.12;2.47;;;;;;;;;;2467744;56;21149;-84
2022/01/14 11:55:59;;;;;;;4.00;1.95;;;;;;;;;;2467373;56;21081;-84
2022/01/14 11:58:26;;;;;;;7.28;2.92;;;;;;;;;;2243729;60;21120;-83
2022/01/14 12:00:54;;;;;;;5.22;2.72;;;;;;;;;;2467418;55;21074;-83
2022/01/14 12:03:26;;;;;;;5.45;2.55;;;;;;;;;;2467971;56;21061;-83
2022/01/14 12:05:54;;;;;;;4.53;2.47;;;;;;;;;;2467872;56;21140;-83
2022/01/14 12:08:21;;;;;;;6.80;3.35;;;;;;;;;;2468019;56;21061;-83
2022/01/14 12:10:50;;;;;;;5.97;2.47;;;;;;;;;;2242905;60;21569;-83
2022/01/14 12:13:22;;;;;;;3.67;2.05;;;;;;;;;;2243594;60;21164;-83
2022/01/14 12:15:57;;;;;;;3.75;2.50;;;;;;;;;;2467743;56;21097;-84
2022/01/14 12:18:42;;;;;;;9.63;2.33;;;;;;;;;;2467998;56;21125;-84
2022/01/14 12:21:09;;;;;;;4.95;2.80;;;;;;;;;;2244118;60;21117;-82
2022/01/14 12:23:36;;;;;;;6.78;3.15;;;;;;;;;;2468459;56;21160;-81
2022/01/14 12:26:14;;;;;;;5.05;2.30;;;;;;;;;;2243790;60;21129;-82
2022/01/14 12:28:42;;;;;;;5.18;2.17;;;;;;;;;;2243705;60;21062;-82
2022/01/14 12:31:10;;;;;;;4.47;2.15;;;;;;;;;;2468471;55;21624;-82
2022/01/14 12:33:40;;;;;;;5.60;2.28;;;;;;;;;;2469028;56;21085;-81
2022/01/14 12:36:11;;;;;;;5.90;2.70;;;;;;;;;;2468934;56;21618;-84
2022/01/14 12:38:39;;;;;;;4.03;2.60;;;;;;;;;;2469091;56;21093;-85
2022/01/14 12:41:13;;;;;;;3.58;2.40;;;;;;;;;;2468546;55;21604;-84
2022/01/14 12:43:47;;;;;;;4.28;2.72;;;;;;;;;;2469406;56;21105;-84
2022/01/14 12:46:34;;;;;;;3.92;2.35;;;;;;;;;;2244585;60;21105;-84
2022/01/14 12:49:06;;;;;;;8.15;2.80;;;;;;;;;;2469452;56;21587;-82
2022/01/14 12:51:33;;;;;;;4.18;2.10;;;;;;;;;;2469563;55;21085;-82
2022/01/14 12:54:04;;;;;;;5.37;2.78;;;;;;;;;;2469567;56;21128;-84
2022/01/14 12:56:32;;;;;;;4.30;2.90;;;;;;;;;;2244655;60;21144;-83
2022/01/14 12:59:05;;;;;;;5.37;3.08;;;;;;;;;;2244564;60;21089;-83
2022/01/14 13:01:37;;;;;;;6.45;2.60;;;;;;;;;;2469072;55;21192;-83
2022/01/14 13:04:05;;;;;;;6.75;3.65;;;;;;;;;;2243422;60;21117;-82
2022/01/14 13:06:43;;;;;;;9.77;3.10;;;;;;;;;;2243495;60;21093;-82
2022/01/14 13:09:10;;;;;;;11.35;3.50;;;;;;;;;;2467303;56;21093;-81
2022/01/14 13:11:48;;;;;;;5.30;3.10;;;;;;;;;;2243278;60;21104;-82
2022/01/14 13:14:18;;;;;;;5.93;3.08;;;;;;;;;;2243125;60;21148;-81
2022/01/14 13:16:47;;;;;;;5.90;3.40;;;;;;;;;;2243118;60;21153;-81
2022/01/14 13:19:24;;;;;;;7.95;2.87;;;;;;;;;;2466997;56;21220;-81
2022/01/14 13:21:51;;;;;;;7.87;3.30;;;;;;;;;;2467407;55;21646;-81
2022/01/14 13:24:19;;;;;;;6.53;3.22;;;;;;;;;;2243145;60;21572;-81
2022/01/14 13:26:57;;;;;;;8.70;3.30;;;;;;;;;;2243412;60;21133;-81
2022/01/14 13:29:24;;;;;;;6.78;2.87;;;;;;;;;;2467474;56;21077;-82
2022/01/14 13:31:51;;;;;;;5.28;2.50;;;;;;;;;;2467932;55;21148;-82
2022/01/14 13:34:20;;;;;;;10.75;2.75;;;;;;;;;;2243249;60;21084;-81
2022/01/14 13:36:48;;;;;;;7.45;2.40;;;;;;;;;;2467186;56;21081;-81
2022/01/14 13:39:15;;;;;;;6.22;2.85;;;;;;;;;;2242933;60;21084;-82
2022/01/14 13:41:42;;;;;;;8.80;2.78;;;;;;;;;;2243082;60;21604;-82
2022/01/14 13:44:19;;;;;;;6.65;2.67;;;;;;;;;;2243010;60;21173;-82
2022/01/14 13:46:49;;;;;;;8.82;3.05;;;;;;;;;;2467894;56;21127;-81
2022/01/14 13:49:20;;;;;;;8.68;3.10;;;;;;;;;;2242287;60;21242;-82
2022/01/14 13:52:00;;;;;;;8.02;2.83;;;;;;;;;;2467278;55;21561;-82
2022/01/14 13:54:27;;;;;;;7.03;3.30;;;;;;;;;;2466012;56;21077;-81
2022/01/14 13:56:54;;;;;;;7.85;2.47;;;;;;;;;;2242273;60;21065;-82
2022/01/14 13:59:22;;;;;;;9.02;3.10;;;;;;;;;;2242626;60;21089;-81
2022/01/14 14:01:53;;;;;;;5.70;2.58;;;;;;;;;;2467502;55;21065;-81
2022/01/14 14:04:27;;;;;;;5.47;2.00;;;;;;;;;;2242951;60;21132;-81
2022/01/14 14:07:05;;;;;;;6.50;2.53;;;;;;;;;;2243061;60;21089;-82
2022/01/14 14:09:39;;;;;;;8.20;2.50;;;;;;;;;;2467369;56;21085;-82
2022/01/14 14:12:36;;;;;;;9.05;2.75;;;;;;;;;;2467197;55;21173;-82
2022/01/14 14:18:00;;;;;;;11.55;2.90;;;;;;;;;;2242614;60;21037;-80
2022/01/14 14:20:27;;;;;;;5.03;2.00;;;;;;;;;;2467193;55;21137;-83
2022/01/14 14:22:55;;;;;;;4.55;2.08;;;;;;;;;;2467046;56;21618;-83
2022/01/14 14:25:24;;;;;;;9.40;2.30;;;;;;;;;;2466820;56;21117;-83
2022/01/14 14:27:54;;;;;;;8.95;2.58;;;;;;;;;;2243129;60;21108;-84
2022/01/14 14:30:21;;;;;;;10.15;2.65;;;;;;;;;;2242995;60;21136;-84
2022/01/14 14:32:49;;;;;;;10.30;2.60;;;;;;;;;;2242850;60;21628;-84
2022/01/14 14:35:17;;;;;;;9.45;2.70;;;;;;;;;;2466993;56;21129;-83
2022/01/14 14:37:47;;;;;;;5.00;2.05;;;;;;;;;;2466068;56;21129;-85
2022/01/14 14:40:18;;;;;;;10.68;2.97;;;;;;;;;;2243104;60;21129;-84
2022/01/14 14:42:46;;;;;;;13.68;4.57;;;;;;;;;;2467630;56;21109;-85
2022/01/14 14:45:14;;;;;;;12.15;4.22;;;;;;;;;;2242801;60;21155;-85
2022/01/14 14:47:41;;;;;;;16.77;4.72;;;;;;;;;;2467445;56;21121;-85
2022/01/14 14:50:10;;;;;;;11.60;3.45;;;;;;;;;;2243187;60;21752;-83
2022/01/14 14:52:37;;;;;;;11.32;3.60;;;;;;;;;;2243322;60;21074;-82
2022/01/14 14:55:05;;;;;;;13.13;3.97;;;;;;;;;;2243233;60;21081;-82
2022/01/14 14:57:33;;;;;;;11.98;4.30;;;;;;;;;;2242711;60;21176;-82
2022/01/14 15:00:00;;;;;;;12.37;4.97;;;;;;;;;;2240954;60;21306;-81
2022/01/14 15:02:28;;;;;;;13.32;3.55;;;;;;;;;;2240379;60;21093;-83
2022/01/14 15:04:55;;;;;;;9.10;2.55;;;;;;;;;;2242204;60;21065;-80